createdAt,value
2018-11-22T00:02:24.579Z,92.10
2018-11-22T00:04:56.134Z,92.00
2018-11-22T00:07:26.024Z,92.00
2018-11-22T00:09:55.779Z,92.10
2018-11-22T00:12:25.844Z,92.30
2018-11-22T00:14:56.319Z,92.30
2018-11-22T00:17:26.634Z,92.50
2018-11-22T00:19:56.798Z,92.30
2018-11-22T00:22:26.862Z,92.30
2018-11-22T00:24:56.795Z,91.80
2018-11-22T00:27:26.999Z,92.00
2018-11-22T00:29:57.293Z,91.70
2018-11-22T00:32:27.404Z,91.00
2018-11-22T00:34:57.359Z,90.50
2018-11-22T00:37:27.549Z,90.40
2018-11-22T00:39:57.513Z,90.60
2018-11-22T00:42:27.279Z,90.60
2018-11-22T00:44:57.141Z,91.00
2018-11-22T00:47:26.964Z,90.60
2018-11-22T00:49:56.989Z,90.40
2018-11-22T00:52:26.779Z,90.60
2018-11-22T00:54:56.485Z,90.70
2018-11-22T00:57:26.409Z,90.80
2018-11-22T00:59:56.739Z,91.20
2018-11-22T01:02:26.574Z,91.50
2018-11-22T01:04:56.334Z,91.80
2018-11-22T01:07:26.184Z,91.80
2018-11-22T01:09:56.173Z,91.40
2018-11-22T01:12:25.929Z,91.20
2018-11-22T01:14:55.749Z,91.20
2018-11-22T01:17:25.555Z,91.30
2018-11-22T01:19:55.494Z,91.60
2018-11-22T01:22:25.306Z,91.80
2018-11-22T01:24:55.130Z,91.70
2018-11-22T01:27:24.809Z,91.70
2018-11-22T01:29:55.009Z,91.60
2018-11-22T01:32:24.879Z,91.50
2018-11-22T01:34:54.620Z,91.10
2018-11-22T01:37:24.784Z,91.00
2018-11-22T01:39:55.825Z,90.80
2018-11-22T01:42:25.659Z,90.40
2018-11-22T01:44:56.099Z,90.30
2018-11-22T01:47:26.100Z,89.90
2018-11-22T01:49:56.043Z,89.80
2018-11-22T01:52:25.879Z,88.00
2018-11-22T01:54:55.904Z,88.40
2018-11-22T01:57:25.647Z,87.20
2018-11-22T01:59:55.770Z,86.40
2018-11-22T02:02:25.699Z,86.50
2018-11-22T02:04:55.764Z,87.00
2018-11-22T02:07:26.230Z,86.70
2018-11-22T02:09:56.550Z,86.90
2018-11-22T02:12:26.459Z,87.30
2018-11-22T02:14:56.681Z,86.80
2018-11-22T02:17:26.584Z,86.80
2018-11-22T02:19:56.899Z,87.50
2018-11-22T02:22:26.919Z,88.90
2018-11-22T02:24:57.020Z,89.20
2018-11-22T02:27:26.794Z,89.60
2018-11-22T02:29:56.704Z,89.50
2018-11-22T02:32:26.578Z,89.40
2018-11-22T02:34:56.749Z,89.30
2018-11-22T02:37:26.768Z,89.40
2018-11-22T02:39:56.684Z,89.90
2018-11-22T02:42:26.635Z,89.80
2018-11-22T02:44:56.794Z,89.70
2018-11-22T02:47:26.515Z,89.60
2018-11-22T02:49:56.640Z,90.00
2018-11-22T02:52:27.194Z,89.60
2018-11-22T02:54:57.109Z,89.70
2018-11-22T02:57:26.860Z,87.60
2018-11-22T02:59:57.020Z,85.00
2018-11-22T03:02:26.840Z,84.70
2018-11-22T03:04:56.846Z,83.30
2018-11-22T03:07:26.750Z,86.70
2018-11-22T03:09:56.954Z,86.90
2018-11-22T03:12:26.674Z,86.70
2018-11-22T03:14:56.529Z,87.30
2018-11-22T03:17:26.624Z,87.90
2018-11-22T03:19:56.884Z,87.50
2018-11-22T03:22:26.689Z,86.50
2018-11-22T03:24:56.434Z,86.10
2018-11-22T03:27:26.299Z,87.20
2018-11-22T03:29:56.504Z,87.00
2018-11-22T03:32:26.225Z,83.40
2018-11-22T03:34:56.190Z,82.30
2018-11-22T03:37:26.144Z,82.60
2018-11-22T03:39:56.324Z,82.70
2018-11-22T03:42:26.065Z,82.90
2018-11-22T03:44:56.510Z,84.40
2018-11-22T03:47:26.600Z,85.80
2018-11-22T03:49:56.369Z,86.60
2018-11-22T03:52:27.955Z,84.00
2018-11-22T03:54:57.851Z,79.20
2018-11-22T03:57:27.666Z,76.10
2018-11-22T03:59:57.518Z,77.10
2018-11-22T04:02:27.364Z,77.60
2018-11-22T04:04:57.575Z,77.60
2018-11-22T04:07:27.409Z,78.30
2018-11-22T04:09:57.530Z,79.50
2018-11-22T04:12:27.309Z,80.60
2018-11-22T04:14:58.376Z,82.30
2018-11-22T04:17:28.190Z,84.60
2018-11-22T04:19:58.014Z,86.20
2018-11-22T04:22:27.864Z,86.80
2018-11-22T04:24:58.101Z,88.70
2018-11-22T04:27:28.169Z,88.40
2018-11-22T04:29:58.235Z,89.60
2018-11-22T04:32:28.094Z,90.30
2018-11-22T04:34:57.870Z,90.40
2018-11-22T04:37:27.955Z,90.40
2018-11-22T04:39:58.027Z,90.90
2018-11-22T04:42:28.025Z,90.30
2018-11-22T04:44:57.855Z,90.30
2018-11-22T04:47:27.855Z,90.00
2018-11-22T04:49:58.145Z,89.70
2018-11-22T04:52:27.799Z,89.80
2018-11-22T04:54:57.675Z,90.20
2018-11-22T04:57:27.660Z,90.00
2018-11-22T04:59:57.680Z,88.90
2018-11-22T05:02:27.980Z,88.90
2018-11-22T05:04:58.100Z,88.40
2018-11-22T05:07:27.891Z,87.80
2018-11-22T05:09:58.209Z,86.90
2018-11-22T05:12:28.020Z,86.50
2018-11-22T05:14:57.950Z,86.50
2018-11-22T05:17:28.235Z,87.30
2018-11-22T05:19:58.430Z,88.70
2018-11-22T05:22:28.874Z,88.20
2018-11-22T05:24:58.655Z,88.50
2018-11-22T05:27:28.780Z,89.10
2018-11-22T05:29:59.263Z,89.20
2018-11-22T05:32:29.104Z,89.90
2018-11-22T05:34:59.035Z,90.00
2018-11-22T05:37:29.014Z,90.20
2018-11-22T05:39:59.064Z,90.50
2018-11-22T05:42:29.408Z,90.40
2018-11-22T05:44:59.290Z,90.40
2018-11-22T05:47:29.474Z,90.60
2018-11-22T05:49:59.887Z,90.70
2018-11-22T05:52:30.349Z,90.50
2018-11-22T05:55:00.134Z,90.60
2018-11-22T05:57:30.204Z,90.10
2018-11-22T06:00:00.028Z,90.00
2018-11-22T06:02:30.030Z,90.10
2018-11-22T06:05:00.214Z,89.70
2018-11-22T06:07:30.069Z,89.90
2018-11-22T06:10:00.251Z,90.10
2018-11-22T06:12:30.099Z,90.40
2018-11-22T06:14:59.994Z,90.30
2018-11-22T06:17:30.065Z,89.40
2018-11-22T06:20:00.096Z,90.00
2018-11-22T06:22:30.551Z,89.80
2018-11-22T06:25:03.774Z,90.00
2018-11-22T06:27:30.896Z,89.90
2018-11-22T06:30:01.195Z,89.00
2018-11-22T06:32:31.154Z,88.60
2018-11-22T06:35:01.039Z,88.70
2018-11-22T06:37:31.434Z,88.70
2018-11-22T06:40:01.530Z,87.00
2018-11-22T06:42:31.795Z,84.90
2018-11-22T06:45:01.850Z,84.10
2018-11-22T06:47:32.039Z,80.90
2018-11-22T06:50:02.033Z,77.00
2018-11-22T06:52:32.385Z,68.80
2018-11-22T06:55:02.530Z,68.00
2018-11-22T06:57:32.629Z,68.50
2018-11-22T07:00:02.529Z,66.60
2018-11-22T07:02:32.524Z,66.60
2018-11-22T07:05:02.391Z,66.20
2018-11-22T07:07:32.856Z,68.60
2018-11-22T07:10:03.354Z,64.40
2018-11-22T07:12:33.459Z,65.70
2018-11-22T07:15:03.319Z,65.10
2018-11-22T07:17:33.300Z,63.10
2018-11-22T07:20:03.404Z,62.70
2018-11-22T07:22:33.415Z,60.20
2018-11-22T07:25:03.650Z,60.60
2018-11-22T07:27:38.271Z,60.50
2018-11-22T07:30:04.471Z,60.80
2018-11-22T07:32:34.270Z,60.60
2018-11-22T07:35:04.310Z,58.90
2018-11-22T07:37:37.629Z,58.30
2018-11-22T07:40:13.549Z,58.60
2018-11-22T07:42:50.527Z,62.90
2018-11-22T07:45:19.099Z,65.50
2018-11-22T07:47:53.354Z,68.80
2018-11-22T07:50:24.162Z,72.40
2018-11-22T07:52:56.010Z,73.40
2018-11-22T07:55:25.080Z,74.80
2018-11-22T07:57:54.979Z,74.60
2018-11-22T08:00:29.609Z,72.40
2018-11-22T08:02:59.870Z,72.80
2018-11-22T08:05:30.880Z,72.70
2018-11-22T08:08:00.914Z,71.40
2018-11-22T08:10:32.544Z,71.30
2018-11-22T08:13:05.429Z,71.50
2018-11-22T08:15:37.989Z,72.80
2018-11-22T08:18:10.380Z,73.10
2018-11-22T08:20:40.479Z,72.50
2018-11-22T08:23:10.829Z,73.90
2018-11-22T08:25:41.079Z,73.00
2018-11-22T12:15:56.280Z,85.20
2018-11-22T12:18:27.592Z,82.50
2018-11-22T12:20:58.153Z,81.30
2018-11-22T12:23:28.719Z,80.00
2018-11-22T12:25:59.470Z,75.90
2018-11-22T12:28:30.395Z,77.60
2018-11-22T12:31:06.472Z,72.80
2018-11-22T12:36:31.421Z,72.50
2018-11-22T12:39:01.952Z,71.10
2018-11-22T12:41:36.645Z,67.00
2018-11-22T12:44:07.391Z,73.50
2018-11-22T12:46:38.197Z,80.30
2018-11-22T12:49:09.064Z,81.90
2018-11-22T12:51:39.691Z,81.80
2018-11-22T12:54:10.129Z,86.10
2018-11-22T12:56:40.655Z,84.70
2018-11-22T12:59:11.005Z,86.60
2018-11-22T13:01:41.495Z,86.40
2018-11-22T13:04:12.256Z,85.70
2018-11-22T13:06:43.100Z,87.60
2018-11-22T13:09:13.740Z,90.10
2018-11-22T13:11:47.716Z,90.70
2018-11-22T13:14:15.080Z,90.90
2018-11-22T13:16:46.192Z,90.30
2018-11-22T13:19:17.100Z,91.40
2018-11-22T13:21:47.665Z,89.80
2018-11-22T13:24:18.240Z,91.20
2018-11-22T13:26:50.129Z,90.30
2018-11-22T13:29:19.649Z,88.20
2018-11-22T13:31:50.379Z,90.10
2018-11-22T13:34:21.057Z,91.20
2018-11-22T13:36:51.719Z,90.70
2018-11-22T13:39:22.435Z,91.10
2018-11-22T13:41:53.085Z,90.60
2018-11-22T13:44:24.170Z,90.50
2018-11-22T13:46:55.510Z,90.20
2018-11-22T13:49:26.286Z,88.00
2018-11-22T13:51:57.159Z,86.50
2018-11-22T13:54:28.140Z,89.50
2018-11-22T13:56:59.270Z,90.60
2018-11-22T13:59:30.034Z,90.90
2018-11-22T14:02:00.816Z,90.60
2018-11-22T14:04:31.305Z,90.20
2018-11-22T14:07:01.968Z,88.40
2018-11-22T14:09:32.575Z,90.40
2018-11-22T14:12:03.185Z,90.00
2018-11-22T14:14:33.802Z,90.70
2018-11-22T14:17:04.415Z,91.50
2018-11-22T14:19:34.961Z,91.30
2018-11-22T14:22:06.040Z,91.80
2018-11-22T14:24:36.515Z,91.10
2018-11-22T14:27:07.074Z,91.00
2018-11-22T14:29:37.464Z,91.00
2018-11-22T14:32:08.315Z,90.30
2018-11-22T14:34:38.845Z,90.70
2018-11-22T14:37:09.820Z,91.20
2018-11-22T14:39:40.255Z,90.60
2018-11-22T14:42:10.805Z,89.00
2018-11-22T14:44:41.185Z,89.70
2018-11-22T14:47:11.785Z,90.40
2018-11-22T14:49:42.482Z,90.90
2018-11-22T14:52:13.241Z,91.30
2018-11-22T14:54:43.806Z,91.70
2018-11-22T14:57:14.572Z,92.10
2018-11-22T14:59:45.070Z,91.50
2018-11-22T15:02:15.666Z,91.60
2018-11-22T15:04:46.106Z,91.70
2018-11-22T15:07:17.318Z,91.80
2018-11-22T15:09:47.785Z,92.00
2018-11-22T15:12:18.391Z,91.70
2018-11-22T15:14:48.868Z,91.40
2018-11-22T15:17:19.405Z,91.50
2018-11-22T15:19:50.291Z,91.50
2018-11-22T15:22:20.875Z,91.60
2018-11-22T15:24:51.710Z,91.90
2018-11-22T15:27:22.221Z,91.60
2018-11-22T15:29:52.751Z,91.70
2018-11-22T15:32:23.425Z,91.40
2018-11-22T15:34:53.955Z,91.10
2018-11-22T15:37:24.460Z,91.40
2018-11-22T15:39:55.400Z,90.90
2018-11-22T15:42:26.016Z,91.10
2018-11-22T15:44:56.871Z,90.20
2018-11-22T15:47:27.636Z,89.90
2018-11-22T15:49:58.057Z,90.40
2018-11-22T15:52:28.750Z,89.90
2018-11-22T15:54:59.515Z,89.10
2018-11-22T15:57:30.205Z,90.00
2018-11-22T16:00:00.880Z,90.10
2018-11-22T16:02:31.455Z,88.70
2018-11-22T16:05:02.030Z,90.20
2018-11-22T16:07:32.785Z,90.10
2018-11-22T16:10:03.425Z,90.00
2018-11-22T16:12:34.009Z,90.90
2018-11-22T16:15:04.465Z,91.20
2018-11-22T16:17:35.224Z,91.30
2018-11-22T16:20:05.885Z,91.60
2018-11-22T16:22:36.525Z,91.90
2018-11-22T16:25:08.789Z,91.20
2018-11-22T16:27:39.619Z,91.10
2018-11-22T16:30:16.940Z,91.40
2018-11-22T16:32:48.139Z,91.00
2018-11-22T16:35:19.440Z,90.30
2018-11-22T16:37:50.025Z,90.60
2018-11-22T16:40:22.394Z,91.10
2018-11-22T16:42:53.819Z,90.60
2018-11-22T16:45:26.725Z,89.50
2018-11-22T16:47:57.652Z,89.20
2018-11-22T16:50:29.265Z,90.40
2018-11-22T16:52:59.956Z,90.70
2018-11-22T16:55:30.739Z,90.90
2018-11-22T16:58:02.300Z,90.90
2018-11-22T17:00:40.181Z,91.00
2018-11-22T17:03:13.399Z,91.10
2018-11-22T17:05:44.479Z,91.20
2018-11-22T17:08:15.253Z,91.60
2018-11-22T17:10:45.724Z,91.60
2018-11-22T17:13:16.374Z,90.70
2018-11-22T17:15:46.810Z,90.80
2018-11-22T17:18:17.625Z,90.40
2018-11-22T17:20:48.039Z,90.30
2018-11-22T17:23:18.559Z,90.40
2018-11-22T17:25:49.268Z,90.20
2018-11-22T17:28:19.883Z,90.30
2018-11-22T17:30:50.282Z,90.80
2018-11-22T17:33:21.190Z,90.70
2018-11-22T17:35:51.643Z,89.70
2018-11-22T17:38:22.179Z,87.50
2018-11-22T17:40:53.058Z,87.40
2018-11-22T17:43:23.613Z,89.00
2018-11-22T17:45:54.350Z,88.50
2018-11-22T17:48:24.841Z,87.90
2018-11-22T17:50:55.351Z,89.30
2018-11-22T17:53:25.984Z,89.90
2018-11-22T17:55:56.393Z,90.30
2018-11-22T17:58:33.369Z,90.00
2018-11-22T18:01:03.930Z,89.00
2018-11-22T18:03:34.754Z,90.20
2018-11-22T18:06:05.310Z,90.20
2018-11-22T18:08:35.748Z,90.80
2018-11-22T18:11:06.600Z,90.30
2018-11-22T18:13:37.130Z,90.30
2018-11-22T18:16:07.670Z,89.10
2018-11-22T18:18:38.491Z,89.60
2018-11-22T18:21:09.153Z,89.70
2018-11-22T18:23:39.666Z,90.00
2018-11-22T18:26:10.125Z,88.40
2018-11-22T18:28:40.603Z,86.80
2018-11-22T18:31:10.919Z,87.60
2018-11-22T18:33:41.673Z,88.00
2018-11-22T18:36:12.489Z,87.90
2018-11-22T18:38:42.998Z,88.30
2018-11-22T18:41:13.544Z,88.60
2018-11-22T18:43:44.028Z,89.50
2018-11-22T18:46:14.369Z,89.20
2018-11-22T18:48:44.988Z,88.10
2018-11-22T18:51:15.346Z,88.00
2018-11-22T18:53:45.839Z,87.40
2018-11-22T18:56:16.204Z,88.60
2018-11-22T18:58:46.904Z,87.10
2018-11-22T19:01:17.568Z,87.30
2018-11-22T19:03:48.413Z,84.90
2018-11-22T19:06:19.004Z,85.40
2018-11-22T19:08:49.380Z,87.00
2018-11-22T19:11:19.913Z,85.60
2018-11-22T19:13:50.799Z,86.50
2018-11-22T19:16:21.354Z,86.90
2018-11-22T19:18:52.459Z,86.60
2018-11-22T19:21:22.849Z,87.10
2018-11-22T19:23:53.746Z,88.00
2018-11-22T19:26:24.734Z,87.30
2018-11-22T19:28:55.419Z,87.20
2018-11-22T19:31:25.879Z,87.50
2018-11-22T19:33:56.822Z,87.40
2018-11-22T19:36:27.946Z,87.70
2018-11-22T19:38:58.478Z,88.40
2018-11-22T19:41:29.454Z,87.10
2018-11-22T19:44:00.418Z,85.90
2018-11-22T19:46:30.818Z,86.10
2018-11-22T19:49:01.439Z,86.90
2018-11-22T19:51:31.864Z,85.10
2018-11-22T19:54:02.444Z,85.30
2018-11-22T19:56:33.049Z,86.90
2018-11-22T19:59:03.654Z,83.50
2018-11-22T20:01:34.158Z,84.00
2018-11-22T20:04:04.895Z,83.90
2018-11-22T20:06:35.339Z,83.10
2018-11-22T20:09:07.184Z,83.20
2018-11-22T20:11:38.753Z,83.00
2018-11-22T20:14:09.824Z,83.50
2018-11-22T20:16:40.738Z,83.20
2018-11-22T20:19:12.409Z,84.10
2018-11-22T20:21:42.753Z,84.80
2018-11-22T20:24:13.785Z,86.00
2018-11-22T20:26:45.113Z,85.10
2018-11-22T20:29:15.742Z,84.90
2018-11-22T20:31:46.509Z,84.50
2018-11-22T20:34:17.609Z,86.30
2018-11-22T20:36:48.049Z,86.10
2018-11-22T20:39:18.782Z,86.10
2018-11-22T20:41:49.324Z,87.70
2018-11-22T20:44:20.099Z,88.00
2018-11-22T20:46:50.684Z,87.50
2018-11-22T20:49:22.263Z,86.00
2018-11-22T20:51:52.234Z,86.10
2018-11-22T20:54:24.959Z,87.00
2018-11-22T20:56:55.614Z,86.80
2018-11-22T20:59:26.244Z,85.30
2018-11-22T21:01:56.766Z,85.70
2018-11-22T21:04:27.338Z,85.40
2018-11-22T21:06:57.707Z,85.70
2018-11-22T21:09:28.308Z,85.90
2018-11-22T21:11:58.810Z,85.90
2018-11-22T21:14:29.414Z,86.40
2018-11-22T21:17:00.721Z,85.60
2018-11-22T21:19:30.463Z,84.70
2018-11-22T21:22:00.958Z,84.00
2018-11-22T21:24:31.864Z,84.20
2018-11-22T21:27:02.440Z,85.70
2018-11-22T21:29:32.965Z,85.00
2018-11-22T21:32:04.529Z,84.30
2018-11-22T21:34:35.339Z,83.90
2018-11-22T21:37:06.071Z,83.70
2018-11-22T21:39:36.644Z,84.00
2018-11-22T21:42:07.219Z,85.40
2018-11-22T21:44:37.734Z,82.70
2018-11-22T21:47:08.224Z,84.80
2018-11-22T21:49:38.689Z,85.50
2018-11-22T21:52:09.153Z,86.40
2018-11-22T21:54:40.032Z,83.80
2018-11-22T21:57:10.515Z,85.60
2018-11-22T21:59:41.015Z,84.10
2018-11-22T22:02:11.455Z,84.80
2018-11-22T22:04:41.984Z,85.40
2018-11-22T22:07:12.499Z,85.10
2018-11-22T22:09:43.220Z,85.70
2018-11-22T22:12:13.879Z,87.60
2018-11-22T22:14:44.400Z,87.30
2018-11-22T22:17:15.604Z,85.50
2018-11-22T22:19:46.064Z,84.30
2018-11-22T22:22:16.829Z,84.70
2018-11-22T22:24:47.561Z,85.20
2018-11-22T22:27:18.120Z,85.40
2018-11-22T22:29:48.652Z,85.80
2018-11-22T22:32:19.155Z,85.30
2018-11-22T22:34:49.824Z,86.10
2018-11-22T22:37:20.218Z,85.70
2018-11-22T22:39:52.201Z,85.60
2018-11-22T22:42:22.835Z,85.90
2018-11-22T22:44:53.414Z,84.70
2018-11-22T22:47:23.979Z,83.80
2018-11-22T22:49:54.355Z,83.90
2018-11-22T22:52:25.355Z,85.80
2018-11-22T22:54:55.874Z,85.50
2018-11-22T22:57:26.398Z,84.50
2018-11-22T22:59:56.970Z,82.30
2018-11-22T23:02:27.329Z,82.60
2018-11-22T23:05:00.879Z,82.70
2018-11-22T23:07:31.563Z,84.00
2018-11-22T23:10:02.449Z,84.40
2018-11-22T23:12:35.959Z,84.60
2018-11-22T23:15:09.274Z,83.90
2018-11-22T23:17:40.875Z,83.60
2018-11-22T23:20:15.899Z,84.80
2018-11-22T23:22:47.212Z,85.00
2018-11-22T23:25:19.130Z,83.80
2018-11-22T23:27:49.931Z,83.10
2018-11-22T23:30:22.806Z,83.70
2018-11-22T23:32:54.759Z,81.50
2018-11-22T23:35:25.199Z,81.50
2018-11-22T23:37:56.314Z,82.00
2018-11-22T23:40:28.099Z,81.70
2018-11-22T23:42:58.514Z,81.80
2018-11-22T23:45:30.277Z,81.80
2018-11-22T23:48:00.811Z,80.70
2018-11-22T23:50:32.449Z,79.70
2018-11-22T23:53:04.019Z,80.60
2018-11-22T23:55:35.464Z,82.60
2018-11-22T23:58:05.930Z,84.10
